Time;durP1;ratioP1;P1;durP2;ratioP2;P2;SDS_P1;SDS_P2;PMS_P1;PMS_P2;Temp;Humidity;BMP_temperature;BMP_pressure;BME280_temperature;BME280_humidity;BME280_pressure;Samples;Min_cycle;Max_cycle;Signal;HPM_P1;HPM_P2
2022/05/13 00:00:58;;;;;;;5.05;1.23;;;;;;;11.78;74.56;101717.47;4994277;28;20137;-54
2022/05/13 00:03:28;;;;;;;4.00;1.10;;;;;;;11.72;74.52;101721.31;4994041;28;20437;-54
2022/05/13 00:05:56;;;;;;;8.27;2.03;;;;;;;11.65;75.33;101722.59;4990627;28;20050;-55
2022/05/13 00:08:24;;;;;;;5.07;1.20;;;;;;;11.56;76.21;101720.47;4990497;28;20540;-55
2022/05/13 00:10:52;;;;;;;5.43;1.48;;;;;;;11.56;76.11;101721.34;4988469;28;20050;-54
2022/05/13 00:13:21;;;;;;;8.90;1.23;;;;;;;11.45;76.50;101714.03;4990805;28;20054;-52
2022/05/13 00:15:49;;;;;;;4.95;1.02;;;;;;;11.41;76.73;101716.91;4993923;28;20054;-54
2022/05/13 00:18:17;;;;;;;6.90;1.50;;;;;;;11.45;76.66;101713.16;4992069;28;20113;-55
2022/05/13 00:20:47;;;;;;;3.63;1.30;;;;;;;11.41;77.08;101712.50;4989864;28;20117;-55
2022/05/13 00:23:15;;;;;;;6.18;1.40;;;;;;;11.33;77.85;101717.34;4990087;28;20537;-60
2022/05/13 00:25:43;;;;;;;3.47;1.20;;;;;;;11.33;76.84;101715.53;4989245;28;20047;-59
2022/05/13 00:28:13;;;;;;;6.78;1.63;;;;;;;11.28;77.42;101714.09;4993873;28;20047;-59
2022/05/13 00:30:43;;;;;;;3.90;1.20;;;;;;;11.29;77.64;101708.75;4993867;28;20108;-54
2022/05/13 00:33:12;;;;;;;6.05;1.38;;;;;;;11.17;78.29;101712.03;4994044;28;20054;-56
2022/05/13 00:35:40;;;;;;;4.68;1.17;;;;;;;11.18;78.41;101700.59;4992205;28;20050;-60
2022/05/13 00:38:10;;;;;;;5.32;1.40;;;;;;;11.23;77.77;101709.06;4990700;28;20050;-56
2022/05/13 00:40:38;;;;;;;5.47;1.40;;;;;;;11.16;78.13;101708.53;4988739;28;20050;-53
2022/05/13 00:43:10;;;;;;;7.18;1.50;;;;;;;11.17;78.33;101701.50;4992328;28;20054;-55
2022/05/13 00:45:39;;;;;;;4.80;1.33;;;;;;;11.11;77.80;101704.47;4989710;28;20058;-60
2022/05/13 00:48:08;;;;;;;5.93;1.35;;;;;;;11.06;78.70;101707.34;4990440;28;20386;-60
2022/05/13 00:50:40;;;;;;;6.53;1.52;;;;;;;11.12;78.36;101698.25;4989113;28;20859;-59
2022/05/13 00:53:14;;;;;;;6.28;1.45;;;;;;;11.06;79.21;101701.25;4993243;28;20054;-54
2022/05/13 00:55:45;;;;;;;6.80;1.60;;;;;;;11.04;78.19;101695.19;4992933;28;20074;-55
2022/05/13 00:58:18;;;;;;;6.43;1.80;;;;;;;10.94;79.54;101687.78;4993291;28;20053;-55
2022/05/13 01:00:46;;;;;;;;;;;;;;;10.94;80.00;101690.41;4990307;28;20557;-56
2022/05/13 01:03:15;;;;;;;10.63;1.92;;;;;;;10.95;79.87;101692.13;4989836;28;20016;-54
2022/05/13 01:05:48;;;;;;;8.23;1.90;;;;;;;10.92;79.81;101688.78;4990152;28;20456;-55
2022/05/13 01:08:18;;;;;;;5.72;1.45;;;;;;;10.89;80.45;101684.53;4991221;28;20061;-54
2022/05/13 01:10:48;;;;;;;5.15;1.65;;;;;;;10.89;80.90;101688.97;4987590;28;20042;-55
2022/05/13 01:13:22;;;;;;;10.48;1.73;;;;;;;10.89;80.99;101683.69;4990614;28;20054;-55
2022/05/13 01:15:52;;;;;;;8.32;1.80;;;;;;;10.83;81.52;101690.16;4988764;28;20359;-59
2022/05/13 01:18:30;;;;;;;5.47;1.15;;;;;;;10.80;80.71;101692.94;4990747;28;20109;-60
2022/05/13 01:20:59;;;;;;;6.47;1.73;;;;;;;10.77;82.11;101683.44;4990717;28;20477;-59
2022/05/13 01:23:31;;;;;;;4.82;1.35;;;;;;;10.72;82.12;101698.59;4988969;28;20081;-58
2022/05/13 01:26:02;;;;;;;7.47;1.50;;;;;;;10.69;82.54;101685.63;4986386;28;20069;-59
2022/05/13 01:28:32;;;;;;;5.00;1.45;;;;;;;10.73;82.37;101679.25;4989702;28;20061;-59
2022/05/13 01:31:03;;;;;;;4.18;1.48;;;;;;;10.75;83.50;101681.81;4992844;28;20038;-51
2022/05/13 01:33:32;;;;;;;9.68;1.52;;;;;;;10.76;83.36;101688.78;4990260;28;20138;-54
2022/05/13 01:36:02;;;;;;;7.32;1.30;;;;;;;10.64;84.37;101687.63;4987702;28;20074;-55
2022/05/13 01:38:34;;;;;;;6.35;1.45;;;;;;;10.68;83.73;101688.31;4989090;28;20575;-55
2022/05/13 01:41:02;;;;;;;5.40;1.40;;;;;;;10.59;85.33;101693.13;4986856;28;20498;-59
2022/05/13 01:43:31;;;;;;;9.43;1.80;;;;;;;10.59;84.77;101687.88;4988862;28;20042;-58
2022/05/13 01:45:59;;;;;;;6.32;1.88;;;;;;;10.58;85.55;101694.06;4988619;28;20050;-59
2022/05/13 01:48:28;;;;;;;8.10;1.70;;;;;;;10.53;85.72;101696.06;4989030;28;20138;-58
2022/05/13 01:50:57;;;;;;;8.40;1.70;;;;;;;10.57;86.06;101694.97;4991913;28;20042;-55
2022/05/13 01:53:25;;;;;;;7.10;1.50;;;;;;;10.59;85.68;101698.41;4988723;28;20134;-54
2022/05/13 01:55:55;;;;;;;7.85;2.03;;;;;;;10.55;85.56;101688.97;4986879;28;20050;-53
2022/05/13 01:58:25;;;;;;;5.40;1.58;;;;;;;10.51;86.21;101702.34;4988574;28;20131;-55
2022/05/13 02:00:55;;;;;;;5.72;1.83;;;;;;;10.50;86.34;101701.50;4991716;28;20516;-54
2022/05/13 02:06:10;;;;;;;6.00;1.80;;;;;;;10.50;87.23;101696.22;4992597;28;20259;-55
2022/05/13 02:08:38;;;;;;;8.27;2.00;;;;;;;10.50;87.17;101693.59;4992509;28;20078;-54
2022/05/13 02:11:07;;;;;;;6.10;1.73;;;;;;;10.54;87.61;101689.88;4992611;28;20093;-59
2022/05/13 02:13:36;;;;;;;6.78;2.08;;;;;;;10.52;88.13;101683.84;4992501;28;20043;-59
2022/05/13 02:16:05;;;;;;;6.43;1.50;;;;;;;10.47;88.61;101694.59;4992234;28;20401;-59
2022/05/13 02:18:33;;;;;;;7.82;1.90;;;;;;;10.49;89.08;101687.47;4988670;28;20124;-59
2022/05/13 02:21:01;;;;;;;7.70;1.92;;;;;;;10.53;88.68;101688.19;4988570;28;20085;-60
2022/05/13 02:23:30;;;;;;;8.77;2.00;;;;;;;10.54;87.89;101689.88;4990811;28;20112;-58
2022/05/13 02:26:00;;;;;;;8.50;2.00;;;;;;;10.60;88.12;101686.91;4992512;28;20046;-54
2022/05/13 02:28:31;;;;;;;8.13;2.28;;;;;;;10.61;88.51;101685.16;4991572;28;20051;-59
2022/05/13 02:31:00;;;;;;;6.60;1.83;;;;;;;10.59;89.01;101687.88;4991653;28;20540;-59
2022/05/13 02:33:29;;;;;;;8.77;2.28;;;;;;;10.63;88.76;101683.28;4992121;28;20129;-59
2022/05/13 02:35:59;;;;;;;8.18;2.08;;;;;;;10.61;89.43;101686.00;4992165;28;20490;-60
2022/05/13 02:38:28;;;;;;;8.13;2.22;;;;;;;10.65;89.30;101684.91;4992257;28;20129;-58
2022/05/13 02:41:14;;;;;;;8.65;2.47;;;;;;;10.64;88.60;101679.72;4990175;28;20046;-54
2022/05/13 02:43:46;;;;;;;9.95;2.53;;;;;;;10.61;88.94;101677.28;4992251;28;20564;-56
2022/05/13 02:46:17;;;;;;;13.38;2.67;;;;;;;10.61;90.17;101678.09;4992479;28;20437;-59
2022/05/13 02:48:46;;;;;;;8.82;2.28;;;;;;;10.65;89.85;101674.38;4991626;28;20057;-60
2022/05/13 02:51:15;;;;;;;10.02;2.47;;;;;;;10.68;90.15;101676.00;4991133;28;20043;-59
2022/05/13 02:53:44;;;;;;;11.50;2.38;;;;;;;10.70;89.96;101676.78;4994609;28;20062;-59
2022/05/13 02:56:12;;;;;;;8.73;2.30;;;;;;;10.73;90.23;101674.00;4990000;28;20050;-59
2022/05/13 02:58:41;;;;;;;9.70;3.13;;;;;;;10.80;89.87;101687.69;4991995;28;20065;-58
2022/05/13 03:01:12;;;;;;;8.65;2.30;;;;;;;10.82;90.81;101685.81;4992275;28;20360;-59
2022/05/13 03:03:43;;;;;;;9.27;2.63;;;;;;;10.83;90.45;101687.50;4994522;28;20056;-53
2022/05/13 03:06:12;;;;;;;7.78;2.58;;;;;;;10.77;90.49;101687.81;4992044;28;20050;-53
2022/05/13 03:08:40;;;;;;;9.20;2.22;;;;;;;10.77;90.29;101690.44;4992605;28;20112;-53
2022/05/13 03:11:08;;;;;;;10.73;2.65;;;;;;;10.81;90.79;101679.72;4995512;28;20092;-53
2022/05/13 03:13:37;;;;;;;11.25;2.42;;;;;;;10.84;91.16;101681.31;4993161;28;20050;-56
2022/05/13 03:16:08;;;;;;;9.25;3.20;;;;;;;10.85;91.40;101669.84;4991391;28;20077;-56
2022/05/13 03:18:39;;;;;;;10.48;3.00;;;;;;;10.85;91.86;101669.00;4991589;28;20054;-55
2022/05/13 03:21:08;;;;;;;12.68;3.55;;;;;;;10.81;92.05;101663.03;4992152;28;20058;-56
2022/05/13 03:23:36;;;;;;;13.23;3.47;;;;;;;10.85;92.72;101661.94;4995159;28;20109;-58
2022/05/13 03:26:04;;;;;;;12.80;3.03;;;;;;;10.89;92.55;101652.97;4992141;28;20074;-58
2022/05/13 03:28:33;;;;;;;11.93;3.33;;;;;;;10.90;92.41;101662.56;4991570;28;20412;-55
2022/05/13 03:31:01;;;;;;;9.65;3.42;;;;;;;10.93;93.11;101658.91;4992885;28;20117;-54
2022/05/13 03:33:29;;;;;;;15.25;3.60;;;;;;;10.90;92.97;101662.56;4994447;28;20382;-52
2022/05/13 03:35:59;;;;;;;11.55;3.30;;;;;;;10.89;93.72;101660.00;4993183;28;20070;-53
2022/05/13 03:38:27;;;;;;;10.48;3.72;;;;;;;10.92;93.42;101665.97;4990953;28;20053;-55
2022/05/13 03:40:55;;;;;;;13.70;3.72;;;;;;;11.00;93.52;101662.91;4989102;28;20046;-55
2022/05/13 03:43:23;;;;;;;11.88;3.45;;;;;;;11.01;94.10;101671.69;4991131;28;20046;-56
2022/05/13 03:45:51;;;;;;;12.85;3.63;;;;;;;10.94;94.06;101660.63;4991128;28;20465;-56
2022/05/13 03:48:20;;;;;;;12.80;3.50;;;;;;;10.95;94.26;101660.53;4990979;28;20101;-56
2022/05/13 03:50:48;;;;;;;8.10;3.53;;;;;;;10.98;93.74;101670.06;4990492;28;20046;-53
2022/05/13 03:53:18;;;;;;;12.05;3.58;;;;;;;10.97;94.48;101671.81;4991454;28;20059;-55
2022/05/13 03:55:46;;;;;;;15.05;3.53;;;;;;;11.01;94.23;101669.88;4987600;28;20054;-55
2022/05/13 03:58:14;;;;;;;11.15;3.40;;;;;;;11.02;94.27;101665.50;4990894;28;20046;-55
2022/05/13 04:00:43;;;;;;;12.75;3.60;;;;;;;11.03;94.43;101664.53;4991747;28;20053;-55
2022/05/13 04:03:12;;;;;;;12.68;3.88;;;;;;;11.04;93.50;101663.59;4994441;28;20050;-54
2022/05/13 04:11:18;;;;;;;11.75;3.65;;;;;;;11.06;94.36;101667.88;4983941;28;20058;-59
2022/05/13 04:16:32;;;;;;;10.20;4.03;;;;;;;11.02;95.36;101684.75;4990772;28;20058;-56
2022/05/13 04:19:00;;;;;;;11.70;4.53;;;;;;;11.04;94.59;101672.34;4990193;28;20172;-55
2022/05/13 04:21:30;;;;;;;14.45;5.07;;;;;;;11.04;94.67;101674.97;4993574;28;20069;-54
2022/05/13 04:24:01;;;;;;;15.35;5.65;;;;;;;11.06;94.93;101680.19;4993996;28;20113;-52
2022/05/13 04:26:30;;;;;;;15.93;5.47;;;;;;;11.01;94.41;101687.47;4993940;28;20054;-53
2022/05/13 04:28:59;;;;;;;14.73;4.93;;;;;;;11.02;95.31;101690.03;4990916;28;20054;-55
2022/05/13 04:31:29;;;;;;;17.38;6.00;;;;;;;11.05;95.00;101689.00;4990110;28;20529;-54
2022/05/13 04:33:58;;;;;;;13.52;5.57;;;;;;;10.97;95.66;101690.25;4992837;28;20042;-56
2022/05/13 04:36:26;;;;;;;17.15;5.35;;;;;;;10.93;95.88;101685.25;4989935;28;20604;-54
2022/05/13 04:38:55;;;;;;;13.10;4.95;;;;;;;10.94;96.99;101690.41;4990339;28;20043;-55
2022/05/13 04:44:14;;;;;;;15.40;5.40;;;;;;;10.94;97.51;101695.69;4990340;28;20655;-54
2022/05/13 04:46:42;;;;;;;13.73;5.35;;;;;;;10.96;98.21;101696.47;4989862;28;20046;-53
2022/05/13 04:49:11;;;;;;;16.33;5.60;;;;;;;10.93;98.19;101701.88;4990386;28;20055;-55
2022/05/13 04:51:39;;;;;;;12.95;5.03;;;;;;;10.93;98.79;101701.88;4991841;28;20553;-56
2022/05/13 04:54:09;;;;;;;16.65;5.30;;;;;;;10.96;98.99;101707.00;4993257;28;20057;-58
2022/05/13 04:56:39;;;;;;;12.65;4.75;;;;;;;10.99;99.10;101716.50;4992937;28;20066;-55
2022/05/13 04:59:08;;;;;;;14.90;4.88;;;;;;;11.00;99.13;101718.19;4989666;28;20054;-58
2022/05/13 05:01:36;;;;;;;14.77;5.72;;;;;;;11.04;99.53;101716.25;4988968;28;20078;-58
2022/05/13 05:04:04;;;;;;;17.38;5.60;;;;;;;11.06;99.52;101725.78;4989383;28;20054;-58
2022/05/13 05:06:32;;;;;;;14.88;5.72;;;;;;;11.03;99.82;101717.19;4991880;28;20540;-59
2022/05/13 05:09:00;;;;;;;18.88;6.38;;;;;;;10.91;100.00;101716.91;4992577;28;20129;-59
2022/05/13 05:11:31;;;;;;;14.80;6.03;;;;;;;10.99;100.00;101719.16;4987479;28;20135;-58
2022/05/13 05:14:00;;;;;;;16.75;6.47;;;;;;;11.04;100.00;101726.78;4989423;28;20128;-58
2022/05/13 05:16:28;;;;;;;14.00;5.70;;;;;;;11.07;100.00;101735.38;4990975;28;20113;-58
2022/05/13 05:18:59;;;;;;;14.60;5.85;;;;;;;11.07;100.00;101727.47;4991539;28;20133;-58
2022/05/13 05:21:29;;;;;;;16.10;6.03;;;;;;;11.14;100.00;101741.16;4988555;28;20077;-59
2022/05/13 05:23:57;;;;;;;16.00;5.70;;;;;;;11.21;100.00;101739.91;4987583;28;20046;-58
2022/05/13 05:26:26;;;;;;;15.45;5.65;;;;;;;11.28;100.00;101738.63;4986599;28;20065;-58
2022/05/13 05:28:54;;;;;;;14.95;6.25;;;;;;;11.31;100.00;101749.00;4987975;28;20050;-58
2022/05/13 05:31:23;;;;;;;15.60;5.60;;;;;;;11.35;100.00;101747.06;4987871;28;20058;-58
2022/05/13 05:33:51;;;;;;;18.73;6.40;;;;;;;11.45;100.00;101744.75;4987749;28;20112;-58
2022/05/13 05:36:20;;;;;;;17.70;5.75;;;;;;;11.60;100.00;101750.97;4988505;28;20065;-59
2022/05/13 05:38:48;;;;;;;16.05;5.95;;;;;;;11.69;100.00;101747.84;4991892;28;20070;-59
2022/05/13 05:41:16;;;;;;;19.67;6.65;;;;;;;11.73;100.00;101754.63;4991923;28;20453;-59
2022/05/13 05:43:44;;;;;;;18.48;6.53;;;;;;;11.78;99.96;101751.72;4990659;28;20101;-58
2022/05/13 05:46:12;;;;;;;18.92;6.35;;;;;;;11.80;99.68;101756.00;4988925;28;20426;-59
2022/05/13 05:48:42;;;;;;;18.88;7.47;;;;;;;11.87;99.56;101759.13;4987678;28;20042;-59
2022/05/13 05:51:10;;;;;;;18.70;6.13;;;;;;;11.91;100.00;101765.09;4987436;28;20058;-58
2022/05/13 05:59:09;;;;;;;16.73;6.00;;;;;;;11.94;99.93;101776.38;4991711;28;20124;-55
2022/05/13 06:01:38;;;;;;;18.73;6.75;;;;;;;12.02;99.58;101772.44;4990442;28;20478;-54
2022/05/13 06:04:07;;;;;;;14.95;6.25;;;;;;;12.16;99.04;101769.84;4988227;28;20405;-56
2022/05/13 06:06:35;;;;;;;16.52;6.55;;;;;;;12.25;100.00;101782.50;4991361;28;20073;-56
2022/05/13 06:09:04;;;;;;;17.10;6.50;;;;;;;12.36;99.91;101781.06;4993873;28;20053;-59
2022/05/13 06:11:32;;;;;;;17.05;6.60;;;;;;;12.46;99.74;101779.56;4989190;28;20493;-60
2022/05/13 06:14:00;;;;;;;17.35;7.30;;;;;;;12.49;98.83;101774.97;4991371;28;20121;-60
2022/05/13 06:16:29;;;;;;;22.55;7.47;;;;;;;12.62;98.46;101776.88;4991806;28;20222;-59
2022/05/13 06:19:00;;;;;;;19.23;6.70;;;;;;;12.73;98.18;101785.00;4991377;28;20058;-60
2022/05/13 06:21:31;;;;;;;20.88;6.78;;;;;;;12.80;98.45;101783.72;4993322;28;20074;-59
2022/05/13 06:23:59;;;;;;;19.63;7.38;;;;;;;12.87;98.40;101786.84;4956958;28;1125451;-59
2022/05/13 06:26:29;;;;;;;18.38;7.63;;;;;;;12.95;98.40;101791.66;4995032;28;20046;-58
2022/05/13 06:28:57;;;;;;;24.75;6.45;;;;;;;13.04;98.33;101790.25;4992248;28;20910;-59
2022/05/13 06:31:27;;;;;;;25.73;7.82;;;;;;;13.16;97.27;101795.63;4992485;28;20112;-56
2022/05/13 06:33:55;;;;;;;19.17;7.10;;;;;;;13.30;96.93;101788.66;4992179;28;20186;-56
2022/05/13 06:36:23;;;;;;;24.27;7.47;;;;;;;13.29;96.16;101789.59;4990777;28;20081;-57
2022/05/13 06:38:53;;;;;;;18.23;7.50;;;;;;;13.43;96.42;101802.84;4991922;28;20136;-59
2022/05/13 06:41:21;;;;;;;106.60;14.52;;;;;;;13.49;95.71;101801.59;4990243;28;20112;-53
2022/05/13 06:43:49;;;;;;;25.75;7.45;;;;;;;13.53;96.06;101805.75;4992233;28;20053;-56
2022/05/13 06:46:17;;;;;;;20.00;7.72;;;;;;;13.68;95.44;101806.59;4992316;28;20077;-59
2022/05/13 06:48:47;;;;;;;20.63;6.93;;;;;;;13.79;95.51;101813.84;4994830;28;20058;-59
2022/05/13 06:51:16;;;;;;;17.23;7.70;;;;;;;13.89;94.64;101801.72;4995600;28;20409;-54
2022/05/13 06:53:44;;;;;;;20.02;8.23;;;;;;;13.90;93.26;101795.50;4995757;28;20093;-57
2022/05/13 06:56:13;;;;;;;21.58;7.82;;;;;;;14.09;93.59;101802.25;4995790;28;20058;-55
2022/05/13 06:58:42;;;;;;;15.90;7.03;;;;;;;14.11;91.79;101806.50;4993178;28;20057;-58
2022/05/13 07:01:10;;;;;;;17.38;7.68;;;;;;;14.11;92.52;101805.63;4992103;28;20038;-56
2022/05/13 07:03:38;;;;;;;16.13;7.32;;;;;;;14.17;92.06;101807.88;4991598;28;20045;-58
2022/05/13 07:06:06;;;;;;;17.73;7.65;;;;;;;14.34;92.20;101812.94;4992261;28;20405;-55
2022/05/13 07:08:35;;;;;;;19.30;7.97;;;;;;;14.42;91.68;101808.94;4995258;28;20105;-55
2022/05/13 07:11:03;;;;;;;15.43;7.70;;;;;;;14.59;90.24;101811.31;4993427;28;20544;-56
2022/05/13 07:13:32;;;;;;;25.15;8.52;;;;;;;14.60;89.43;101820.94;4991361;28;20051;-59
2022/05/13 07:16:00;;;;;;;20.27;7.80;;;;;;;14.62;89.13;101812.91;4990980;28;20058;-55
2022/05/13 07:18:29;;;;;;;18.45;7.38;;;;;;;14.74;88.75;101814.75;4995107;28;20045;-56
2022/05/13 07:20:57;;;;;;;21.83;7.82;;;;;;;14.90;88.97;101816.34;4994003;28;20054;-54
2022/05/13 07:23:25;;;;;;;18.80;8.02;;;;;;;14.95;87.25;101816.88;4994789;28;20065;-55
2022/05/13 07:25:53;;;;;;;17.33;7.65;;;;;;;15.11;88.53;101811.41;4991229;28;20100;-59
2022/05/13 07:28:21;;;;;;;20.88;7.93;;;;;;;15.23;87.16;101821.16;4991213;28;20070;-55
2022/05/13 07:30:51;;;;;;;15.63;7.70;;;;;;;15.33;85.43;101814.22;4993779;28;20410;-54
2022/05/13 07:33:20;;;;;;;13.93;7.18;;;;;;;15.45;85.02;101817.81;4991283;28;20046;-55
2022/05/13 07:35:49;;;;;;;20.73;7.68;;;;;;;15.62;83.91;101808.66;4990248;28;20046;-58
2022/05/13 07:38:17;;;;;;;18.73;8.35;;;;;;;15.74;83.49;101816.72;4993021;28;20050;-58
2022/05/13 07:43:31;;;;;;;14.93;7.68;;;;;;;15.97;82.44;101823.88;4990886;28;20054;-58
2022/05/13 07:46:00;;;;;;;17.58;8.40;;;;;;;16.24;81.94;101814.88;4990606;28;20453;-59
2022/05/13 07:48:28;;;;;;;16.48;7.95;;;;;;;16.21;79.96;101823.91;4991126;28;20557;-58
2022/05/13 07:50:57;;;;;;;18.55;7.40;;;;;;;16.16;78.78;101826.03;4990641;28;20058;-57
2022/05/13 07:53:25;;;;;;;19.98;7.55;;;;;;;16.27;79.17;101827.06;4990873;28;20046;-58
2022/05/13 07:55:53;;;;;;;18.58;7.97;;;;;;;16.23;78.62;101826.44;4988900;28;20354;-57
2022/05/13 07:58:21;;;;;;;21.85;9.07;;;;;;;16.34;79.78;101829.13;4990972;28;20050;-58
2022/05/13 08:00:49;;;;;;;16.40;8.60;;;;;;;16.41;78.52;101826.88;4990498;28;20050;-59
2022/05/13 08:03:19;;;;;;;16.30;8.20;;;;;;;16.51;78.21;101832.34;4992873;28;20046;-58
2022/05/13 08:05:50;;;;;;;17.77;9.18;;;;;;;16.29;77.93;101833.09;4990598;28;20868;-58
2022/05/13 08:08:20;;;;;;;12.43;8.02;;;;;;;16.27;78.10;101837.69;4990464;28;20061;-54
2022/05/13 08:10:52;;;;;;;18.05;8.55;;;;;;;16.28;78.11;101826.97;4993084;28;20062;-55
2022/05/13 08:13:20;;;;;;;14.35;7.80;;;;;;;16.40;77.79;101827.84;4994233;28;20445;-56
2022/05/13 08:15:48;;;;;;;16.98;7.38;;;;;;;16.41;77.91;101836.66;4994072;28;20070;-59
2022/05/13 08:18:20;;;;;;;20.38;7.80;;;;;;;16.44;76.86;101833.78;4994275;28;20046;-55
2022/05/13 08:20:49;;;;;;;17.33;7.40;;;;;;;16.28;77.66;101834.91;4993405;28;20060;-59
2022/05/13 08:23:18;;;;;;;10.70;5.95;;;;;;;16.38;76.98;101843.88;4990405;28;20153;-59
2022/05/13 08:25:47;;;;;;;13.48;5.55;;;;;;;16.42;75.03;101844.50;4988329;28;20058;-55
2022/05/13 08:28:16;;;;;;;17.00;6.20;;;;;;;16.43;75.24;101851.53;4989414;28;20045;-58
2022/05/13 08:30:45;;;;;;;13.77;5.55;;;;;;;16.22;76.01;101840.66;4989907;28;20137;-56
2022/05/13 08:33:14;;;;;;;13.85;5.78;;;;;;;16.22;76.24;101845.97;4991054;28;20426;-54
2022/05/13 08:35:46;;;;;;;14.93;5.65;;;;;;;16.33;76.29;101854.00;4989651;28;20429;-58
2022/05/13 08:38:15;;;;;;;15.45;5.65;;;;;;;16.48;75.22;101859.97;4991761;28;20055;-58
2022/05/13 08:41:09;;;;;;;14.63;5.18;;;;;;;16.61;75.16;101859.91;4989524;28;20077;-58
2022/05/13 08:43:41;;;;;;;14.98;5.25;;;;;;;16.48;74.87;101867.09;4989999;28;20149;-55
2022/05/13 08:46:15;;;;;;;15.50;4.90;;;;;;;16.58;74.41;101868.13;4992815;28;20053;-58
2022/05/13 08:48:54;;;;;;;16.38;4.88;;;;;;;16.58;73.51;101872.56;4989790;28;20498;-58
2022/05/13 08:51:37;;;;;;;11.20;4.72;;;;;;;16.65;74.16;101877.31;4989885;28;20492;-58
2022/05/13 08:54:11;;;;;;;12.18;4.57;;;;;;;16.78;74.13;101866.59;4989687;28;20394;-58
2022/05/13 08:56:40;;;;;;;15.93;5.95;;;;;;;16.78;73.86;101868.41;4988063;28;20113;-58
2022/05/13 08:59:12;;;;;;;14.35;4.63;;;;;;;16.72;73.37;101872.38;4991907;28;20490;-58
2022/05/13 09:01:46;;;;;;;11.95;3.75;;;;;;;16.81;73.28;101868.19;4991092;28;20050;-59
2022/05/13 09:04:23;;;;;;;11.85;4.05;;;;;;;16.98;71.46;101873.09;4988851;28;20042;-58
2022/05/13 09:06:57;;;;;;;11.90;4.07;;;;;;;17.15;71.24;101879.78;4989346;28;20073;-53
2022/05/13 09:09:25;;;;;;;8.63;2.47;;;;;;;17.28;67.59;101877.03;4990655;28;20050;-54
2022/05/13 09:11:59;;;;;;;8.25;2.30;;;;;;;17.49;67.02;101874.53;4991294;28;20536;-57
2022/05/13 09:14:34;;;;;;;8.52;1.80;;;;;;;17.51;62.22;101877.88;4989742;28;20050;-59
2022/05/13 09:17:21;;;;;;;5.35;1.50;;;;;;;17.61;60.93;101886.00;4992506;28;20069;-59
2022/05/13 09:19:58;;;;;;;5.90;1.55;;;;;;;17.58;60.55;101871.13;4988934;28;20046;-59
2022/05/13 09:22:35;;;;;;;6.25;1.50;;;;;;;17.69;59.04;101869.44;4989414;28;20046;-57
2022/05/13 09:25:05;;;;;;;6.70;1.75;;;;;;;17.87;59.62;101875.09;4987317;28;21193;-58
2022/05/13 09:27:52;;;;;;;7.72;1.70;;;;;;;17.82;59.94;101872.81;4989491;28;20050;-58
2022/05/13 09:30:23;;;;;;;7.07;1.70;;;;;;;17.81;61.27;101872.94;4992806;28;20057;-54
2022/05/13 09:32:51;;;;;;;5.05;1.63;;;;;;;18.03;58.87;101875.59;4993138;28;20074;-55
2022/05/13 09:35:35;;;;;;;4.97;1.60;;;;;;;18.04;58.46;101877.28;4992687;28;20134;-58
2022/05/13 09:38:14;;;;;;;5.38;1.50;;;;;;;18.00;58.65;101883.81;4991817;28;20714;-58
2022/05/13 09:40:42;;;;;;;7.80;1.85;;;;;;;18.20;59.27;101894.66;4987593;28;20046;-58
2022/05/13 09:43:10;;;;;;;5.03;2.13;;;;;;;18.19;59.36;101888.50;4989098;28;20442;-59
2022/05/13 09:45:39;;;;;;;5.35;1.55;;;;;;;18.39;57.23;101881.56;4988977;28;20069;-58
2022/05/13 09:48:13;;;;;;;6.55;1.55;;;;;;;18.46;56.84;101881.91;4989024;28;20061;-58
2022/05/13 09:50:44;;;;;;;4.97;1.58;;;;;;;18.66;55.57;101882.91;4988715;28;20460;-57
2022/05/13 09:53:31;;;;;;;5.90;1.90;;;;;;;19.01;53.54;101886.28;4989420;28;20046;-53
2022/05/13 09:56:02;;;;;;;8.27;1.77;;;;;;;19.04;53.56;101878.03;4986761;28;20046;-55
2022/05/13 09:58:34;;;;;;;6.78;1.58;;;;;;;18.90;55.08;101879.19;4988669;28;20049;-56
2022/05/13 10:01:06;;;;;;;5.05;1.50;;;;;;;19.22;55.78;101883.59;4988881;28;20497;-58
2022/05/13 10:03:37;;;;;;;5.05;1.80;;;;;;;19.19;53.92;101883.88;4988854;28;20058;-58
2022/05/13 10:06:22;;;;;;;6.63;1.40;;;;;;;19.32;52.36;101876.50;4988527;28;20505;-53
2022/05/13 10:08:57;;;;;;;5.57;1.83;;;;;;;19.25;52.23;101883.31;4991508;28;20050;-58
2022/05/13 10:14:29;;;;;;;6.47;1.77;;;;;;;19.52;52.32;101871.25;4989025;28;20054;-54
2022/05/13 10:17:03;;;;;;;4.85;1.40;;;;;;;19.49;53.25;101868.84;4988943;28;20058;-55
2022/05/13 10:19:38;;;;;;;8.52;1.60;;;;;;;19.71;53.63;101867.81;4988308;28;20053;-55
2022/05/13 10:22:15;;;;;;;6.35;1.80;;;;;;;19.78;54.28;101879.63;4992453;28;20118;-57
2022/05/13 10:24:50;;;;;;;6.95;1.80;;;;;;;19.58;54.46;101878.72;4992447;28;20397;-58
2022/05/13 10:27:25;;;;;;;6.93;2.63;;;;;;;19.48;55.12;101880.50;4989603;28;20065;-58
2022/05/13 10:29:58;;;;;;;7.82;1.90;;;;;;;19.33;54.35;101891.50;4988979;28;20069;-59
2022/05/13 10:32:35;;;;;;;11.27;1.98;;;;;;;19.40;56.47;101886.50;4988583;28;20046;-58
2022/05/13 10:35:09;;;;;;;7.05;1.88;;;;;;;19.79;53.71;101881.31;4988213;28;20121;-58
2022/05/13 10:37:55;;;;;;;6.55;1.80;;;;;;;20.42;53.28;101882.88;4988762;28;20061;-58
2022/05/13 10:40:30;;;;;;;8.27;2.00;;;;;;;20.18;51.51;101883.28;4991645;28;20062;-58
2022/05/13 10:43:04;;;;;;;6.95;2.10;;;;;;;20.22;51.46;101882.88;4990601;28;20062;-58
2022/05/13 10:45:35;;;;;;;11.02;2.35;;;;;;;20.35;51.84;101887.94;4990042;28;20129;-59
2022/05/13 10:48:20;;;;;;;7.75;1.90;;;;;;;20.22;53.07;101890.88;4988227;28;20054;-58
2022/05/13 10:51:00;;;;;;;8.05;2.05;;;;;;;20.46;51.13;101894.97;4992163;28;20496;-58
2022/05/13 10:53:40;;;;;;;7.25;1.60;;;;;;;21.06;51.10;101892.16;4992365;28;20137;-58
2022/05/13 10:56:21;;;;;;;5.78;1.70;;;;;;;21.35;49.25;101890.41;4991782;28;20474;-58
2022/05/13 10:58:57;;;;;;;6.20;1.35;;;;;;;21.46;47.41;101879.53;4993152;28;20057;-59
2022/05/13 11:01:39;;;;;;;5.72;1.27;;;;;;;21.32;47.69;101885.34;4991996;28;20130;-56
2022/05/13 11:04:16;;;;;;;7.28;1.30;;;;;;;21.10;47.47;101888.25;4993122;28;20371;-56
2022/05/13 11:06:58;;;;;;;5.63;1.20;;;;;;;21.14;47.75;101885.28;4995653;28;20061;-56
2022/05/13 11:09:38;;;;;;;6.78;1.60;;;;;;;21.60;47.89;101886.28;4992073;28;20053;-58
2022/05/13 11:12:15;;;;;;;4.43;1.20;;;;;;;21.55;45.35;101891.22;4990183;28;20062;-59
2022/05/13 11:14:59;;;;;;;8.32;1.52;;;;;;;21.51;45.41;101889.78;4991974;28;20046;-56
2022/05/13 11:17:37;;;;;;;4.72;1.40;;;;;;;21.21;44.52;101883.69;4991789;28;20390;-57
2022/05/13 11:20:23;;;;;;;4.40;1.10;;;;;;;21.27;44.84;101886.63;4991348;28;20068;-59
2022/05/13 11:23:09;;;;;;;6.10;1.42;;;;;;;21.50;46.60;101896.13;4991661;28;20509;-59
2022/05/13 11:25:56;;;;;;;7.72;1.38;;;;;;;21.71;45.40;101887.91;4989721;28;20046;-59
2022/05/13 11:28:55;;;;;;;4.70;1.20;;;;;;;21.86;44.69;101897.13;4991402;28;20057;-59
2022/05/13 11:32:01;;;;;;;5.40;1.50;;;;;;;22.20;43.73;101893.84;4992972;28;20054;-57
2022/05/13 11:34:52;;;;;;;4.50;1.30;;;;;;;22.19;43.80;101888.63;4994922;28;20157;-60
2022/05/13 11:37:22;;;;;;;6.07;1.23;;;;;;;22.22;42.16;101881.16;4991524;28;20065;-57
2022/05/13 11:40:04;;;;;;;4.65;1.10;;;;;;;22.73;42.65;101869.91;4992925;28;20061;-58
2022/05/13 11:43:22;;;;;;;3.95;1.23;;;;;;;22.39;41.73;101887.53;4994824;28;20448;-59
2022/05/13 11:46:18;;;;;;;9.50;1.60;;;;;;;22.52;40.77;101894.34;4994902;28;20058;-56
2022/05/13 11:48:48;;;;;;;6.85;1.30;;;;;;;22.25;41.10;101888.00;4991746;28;20512;-57
2022/05/13 11:51:21;;;;;;;5.88;1.30;;;;;;;22.03;41.95;101891.97;4990544;28;20440;-56
2022/05/13 11:54:10;;;;;;;5.68;1.17;;;;;;;21.96;41.56;101891.72;4992077;28;20548;-56
2022/05/13 11:56:39;;;;;;;4.00;0.98;;;;;;;22.02;41.56;101880.41;4992460;28;20053;-58
2022/05/13 11:59:11;;;;;;;4.28;1.20;;;;;;;21.70;41.32;101897.75;4989391;28;20465;-58
2022/05/13 12:01:55;;;;;;;5.23;1.20;;;;;;;21.73;42.63;101901.97;4990024;28;20097;-57
2022/05/13 12:04:35;;;;;;;3.50;1.20;;;;;;;21.39;41.74;101894.47;4990478;28;20497;-56
2022/05/13 12:07:26;;;;;;;5.68;0.90;;;;;;;21.70;42.17;101894.25;4990736;28;20142;-57